Time;durP1;ratioP1;P1;durP2;ratioP2;P2;SDS_P1;SDS_P2;PMS_P1;PMS_P2;Temp;Humidity;BMP_temperature;BMP_pressure;BME280_temperature;BME280_humidity;BME280_pressure;Samples;Min_cycle;Max_cycle;Signal;HPM_P1;HPM_P2
2022/06/03 00:00:04;;;;;;;3.13;1.83;;;;;;;25.76;42.22;97011.09;5135418;27;20042;-26
2022/06/03 00:03:03;;;;;;;2.75;2.22;;;;;;;25.75;42.13;97017.16;5135523;27;20023;-26
2022/06/03 00:05:53;;;;;;;3.97;2.03;;;;;;;25.74;42.18;97018.41;5135268;27;20420;-27
2022/06/03 00:08:47;;;;;;;3.65;1.95;;;;;;;25.70;42.24;97023.50;5116904;27;20364;-27
2022/06/03 00:12:00;;;;;;;3.83;1.85;;;;;;;25.71;41.90;97019.47;5135286;27;20087;-26
2022/06/03 00:14:35;;;;;;;3.03;2.00;;;;;;;25.72;42.04;97018.19;5135576;27;20026;-26
2022/06/03 00:17:22;;;;;;;3.97;2.40;;;;;;;25.67;41.98;97018.97;5135346;27;20031;-26
2022/06/03 00:20:03;;;;;;;3.90;2.20;;;;;;;25.72;42.09;97021.72;5134880;27;20031;-25
2022/06/03 00:22:39;;;;;;;5.30;2.20;;;;;;;25.70;42.21;97013.16;5135326;27;20042;-26
2022/06/03 00:25:40;;;;;;;3.15;2.08;;;;;;;25.72;42.11;97016.16;5135275;27;20023;-25
2022/06/03 00:28:08;;;;;;;3.97;2.10;;;;;;;25.66;42.28;97011.91;5134837;27;20512;-26
2022/06/03 00:31:01;;;;;;;3.63;1.90;;;;;;;25.66;42.50;97012.66;5134874;27;20023;-27
2022/06/03 00:33:55;;;;;;;6.28;2.28;;;;;;;25.65;42.19;97015.94;5134897;27;20027;-26
2022/06/03 00:36:38;;;;;;;4.35;2.03;;;;;;;25.68;42.45;97018.47;5134780;27;20098;-26
2022/06/03 00:39:32;;;;;;;2.60;1.85;;;;;;;25.67;42.20;97018.97;5135039;27;20019;-26
2022/06/03 00:42:34;;;;;;;4.35;2.08;;;;;;;25.65;42.44;97025.03;5134774;27;20027;-27
2022/06/03 00:45:18;;;;;;;6.37;2.80;;;;;;;25.67;42.15;97024.53;5134909;27;20025;-26
2022/06/03 00:47:58;;;;;;;5.20;2.15;;;;;;;25.65;42.10;97021.50;5134312;27;20027;-26
2022/06/03 00:50:39;;;;;;;5.18;2.00;;;;;;;25.64;42.39;97020.75;5134609;27;20023;-26
2022/06/03 00:53:19;;;;;;;5.22;2.20;;;;;;;25.66;42.19;97021.00;5134434;27;20368;-26
2022/06/03 00:56:12;;;;;;;2.33;1.73;;;;;;;25.63;42.24;97019.25;5134600;27;20019;-26
2022/06/03 00:59:02;;;;;;;3.65;1.83;;;;;;;25.64;42.24;97020.00;5134708;27;20023;-26
2022/06/03 01:01:41;;;;;;;4.63;2.25;;;;;;;25.64;41.91;97020.00;5134436;27;20061;-26
2022/06/03 01:04:24;;;;;;;4.50;1.98;;;;;;;25.60;42.16;97013.91;5134795;27;20023;-26
2022/06/03 01:06:51;;;;;;;5.35;2.25;;;;;;;25.61;42.16;97009.91;5134515;27;20407;-26
2022/06/03 01:09:47;;;;;;;2.60;1.90;;;;;;;25.61;42.11;97007.13;5134263;28;20139;-26
2022/06/03 01:12:25;;;;;;;2.60;1.70;;;;;;;25.59;42.39;97013.16;5134573;28;20023;-27
2022/06/03 01:14:53;;;;;;;3.17;2.03;;;;;;;25.59;42.02;97004.09;5134455;28;20023;-26
2022/06/03 01:17:28;;;;;;;4.93;2.45;;;;;;;25.60;42.17;97006.34;5134370;28;20434;-26
2022/06/03 01:20:14;;;;;;;4.68;2.03;;;;;;;25.59;42.10;97004.09;5134162;28;20023;-26
2022/06/03 01:23:13;;;;;;;3.72;2.15;;;;;;;25.54;42.37;97002.09;5134460;28;20027;-25
2022/06/03 01:25:44;;;;;;;2.97;1.83;;;;;;;25.57;42.10;97009.41;5134332;28;20019;-26
2022/06/03 01:28:18;;;;;;;3.72;2.28;;;;;;;25.57;41.78;97010.16;5134515;28;20023;-26
2022/06/03 01:31:08;;;;;;;2.40;2.00;;;;;;;25.59;41.54;97002.06;5134194;28;20156;-26
2022/06/03 01:34:03;;;;;;;4.03;2.20;;;;;;;25.55;41.65;97006.38;5134222;28;20067;-26
2022/06/03 01:36:34;;;;;;;4.07;2.03;;;;;;;25.55;41.59;97011.94;5133958;28;20015;-26
2022/06/03 01:39:03;;;;;;;3.60;1.92;;;;;;;25.55;41.14;97009.16;5134116;28;20023;-26
2022/06/03 01:41:50;;;;;;;3.58;2.08;;;;;;;25.57;41.21;97015.72;5134063;28;20027;-26
2022/06/03 01:44:36;;;;;;;2.15;1.70;;;;;;;25.55;40.86;97001.59;5134128;28;20095;-26
2022/06/03 01:47:17;;;;;;;3.58;2.20;;;;;;;25.54;41.16;97004.88;5101009;28;20029;-27
2022/06/03 01:50:25;;;;;;;2.55;1.65;;;;;;;25.53;40.76;96992.25;5133240;28;20030;-26
2022/06/03 01:53:15;;;;;;;3.55;1.60;;;;;;;25.55;40.84;96987.69;5133998;28;20019;-26
2022/06/03 01:56:22;;;;;;;3.35;1.88;;;;;;;25.57;40.27;96993.50;5134040;28;20031;-26
2022/06/03 01:59:00;;;;;;;2.70;1.50;;;;;;;25.55;40.52;96989.72;5136104;27;20042;-26
2022/06/03 02:01:28;;;;;;;2.47;1.95;;;;;;;25.53;40.55;96981.16;5137672;27;20226;-26
2022/06/03 02:04:43;;;;;;;2.53;1.75;;;;;;;25.48;40.98;96981.91;5137794;27;20023;-27
2022/06/03 02:07:33;;;;;;;4.65;1.80;;;;;;;25.48;40.50;96984.69;5137671;27;20023;-26
2022/06/03 02:10:14;;;;;;;4.30;1.75;;;;;;;25.51;40.49;96984.44;5126545;27;20448;-26
2022/06/03 02:13:16;;;;;;;3.15;1.85;;;;;;;25.49;40.19;96988.97;5116991;28;20026;-26
2022/06/03 02:16:05;;;;;;;4.43;1.63;;;;;;;25.52;40.22;96983.16;5117177;28;20024;-26
2022/06/03 02:18:31;;;;;;;2.15;1.48;;;;;;;25.47;40.53;96977.66;5116899;28;20476;-26
2022/06/03 02:21:41;;;;;;;2.45;1.40;;;;;;;25.47;39.99;96974.88;5116914;28;20028;-26
2022/06/03 02:24:37;;;;;;;2.17;1.35;;;;;;;25.46;39.60;96973.38;5093558;28;20035;-26
2022/06/03 02:27:18;;;;;;;2.40;1.67;;;;;;;25.51;39.64;96967.00;5115527;28;20020;-26
2022/06/03 02:33:01;;;;;;;3.92;1.90;;;;;;;25.49;39.56;96969.53;5116567;28;20066;-26
2022/06/03 02:36:01;;;;;;;2.20;1.63;;;;;;;25.45;39.09;96974.63;5116727;28;20464;-26
2022/06/03 02:38:44;;;;;;;3.03;1.45;;;;;;;25.42;39.03;96968.06;5116667;28;20485;-26
2022/06/03 02:41:27;;;;;;;3.13;1.70;;;;;;;25.38;39.12;96970.38;5116408;28;20019;-26
2022/06/03 02:44:20;;;;;;;2.67;1.60;;;;;;;25.44;39.25;96973.13;5116878;28;20023;-26
2022/06/03 02:47:18;;;;;;;3.20;1.60;;;;;;;25.45;39.34;96974.63;5116572;28;20027;-26
2022/06/03 02:50:24;;;;;;;3.03;1.70;;;;;;;25.41;39.35;96977.66;5114969;28;20039;-26
2022/06/03 02:52:50;;;;;;;3.00;1.50;;;;;;;25.42;38.69;96971.63;5116515;28;20028;-27
2022/06/03 02:55:21;;;;;;;2.78;1.20;;;;;;;25.38;38.76;96971.13;5116507;28;20016;-26
2022/06/03 02:58:31;;;;;;;3.53;1.50;;;;;;;25.37;38.86;96969.59;5116183;28;20035;-26
2022/06/03 03:01:52;;;;;;;2.65;1.50;;;;;;;25.38;38.30;96979.44;5073413;28;20119;-26
2022/06/03 03:04:39;;;;;;;3.35;1.70;;;;;;;25.36;38.68;96987.53;5073411;28;20123;-26
2022/06/03 03:07:13;;;;;;;2.50;1.60;;;;;;;25.40;38.34;96985.25;5073299;28;20028;-26
2022/06/03 03:10:03;;;;;;;1.58;1.23;;;;;;;25.40;38.25;96987.28;5072569;28;20044;-26
2022/06/03 03:12:55;;;;;;;3.35;1.75;;;;;;;25.42;38.36;96988.28;5073387;28;20519;-26
2022/06/03 03:15:55;;;;;;;2.78;1.73;;;;;;;25.39;38.40;96983.75;5072988;28;20059;-25
2022/06/03 03:18:36;;;;;;;3.13;2.00;;;;;;;25.39;38.22;96986.50;5073283;28;20381;-26
2022/06/03 03:21:22;;;;;;;2.53;1.50;;;;;;;25.39;38.54;96999.63;5073166;28;20067;-26
2022/06/03 03:24:09;;;;;;;2.30;1.50;;;;;;;25.36;38.38;96995.84;5073240;28;20048;-26
2022/06/03 03:27:03;;;;;;;3.10;1.77;;;;;;;25.36;38.43;96998.63;5072928;28;20031;-26
2022/06/03 03:29:38;;;;;;;2.35;1.35;;;;;;;25.36;38.08;96989.56;5072808;28;20048;-26
2022/06/03 03:32:22;;;;;;;4.15;2.03;;;;;;;25.33;38.68;97002.47;5072836;28;20169;-26
2022/06/03 03:34:54;;;;;;;2.88;1.70;;;;;;;25.34;38.49;97006.00;5072998;28;20423;-26
2022/06/03 03:37:31;;;;;;;2.97;1.80;;;;;;;25.35;38.58;97005.44;5111403;28;20479;-26
2022/06/03 03:40:26;;;;;;;3.45;2.03;;;;;;;25.34;38.13;96994.88;5115621;28;20076;-26
2022/06/03 03:43:13;;;;;;;2.15;1.73;;;;;;;25.32;38.70;96995.38;5115265;28;20165;-26
2022/06/03 03:46:09;;;;;;;3.58;2.00;;;;;;;25.33;38.55;96996.16;5115436;28;20038;-26
2022/06/03 03:48:58;;;;;;;2.80;1.70;;;;;;;25.31;38.54;96996.66;5115280;28;20015;-26
2022/06/03 03:51:40;;;;;;;3.00;1.90;;;;;;;25.33;38.97;96999.69;5115311;28;20072;-26
2022/06/03 03:54:25;;;;;;;3.65;1.50;;;;;;;25.32;38.46;97000.94;5115189;28;20019;-26
2022/06/03 03:57:08;;;;;;;6.20;2.03;;;;;;;25.33;38.37;96999.69;5115117;28;20023;-26
2022/06/03 03:59:54;;;;;;;3.60;1.73;;;;;;;25.33;38.58;97001.69;5115280;27;20047;-26
2022/06/03 04:02:57;;;;;;;2.05;1.40;;;;;;;25.28;38.36;97017.09;5114993;28;20379;-25
2022/06/03 04:05:45;;;;;;;3.13;1.70;;;;;;;25.31;38.35;97024.41;5115161;28;20042;-26
2022/06/03 04:08:48;;;;;;;3.58;1.42;;;;;;;25.32;38.43;97025.19;5109000;28;20031;-26
2022/06/03 04:11:26;;;;;;;3.43;1.70;;;;;;;25.32;38.38;97033.50;5114658;28;20127;-26
2022/06/03 04:14:06;;;;;;;4.13;2.15;;;;;;;25.33;38.09;97027.44;5114779;28;20364;-26
2022/06/03 04:17:07;;;;;;;4.20;2.15;;;;;;;25.29;38.36;97029.72;5114741;28;20028;-26
2022/06/03 04:19:57;;;;;;;6.00;3.60;;;;;;;25.28;38.03;97028.22;5085563;28;20594;-26
2022/06/03 04:22:59;;;;;;;4.88;3.33;;;;;;;25.23;38.05;97031.00;5114082;28;20023;-25
2022/06/03 04:25:38;;;;;;;9.52;5.43;;;;;;;25.26;38.26;97024.44;5114394;28;20019;-26
2022/06/03 04:28:34;;;;;;;10.48;6.93;;;;;;;25.28;38.52;97033.75;5114429;28;20050;-26
2022/06/03 04:31:36;;;;;;;11.60;7.63;;;;;;;25.32;38.32;97034.25;5114176;28;20023;-26
2022/06/03 04:34:11;;;;;;;15.30;8.23;;;;;;;25.26;38.38;97039.06;5114494;28;20039;-26
2022/06/03 04:36:57;;;;;;;13.95;9.88;;;;;;;25.26;38.01;97035.53;5114405;28;20031;-26
2022/06/03 04:40:00;;;;;;;13.30;8.77;;;;;;;25.25;38.41;97036.78;5114329;28;20464;-27
2022/06/03 04:42:31;;;;;;;12.50;8.65;;;;;;;25.25;38.20;97034.78;5114216;28;20083;-26
2022/06/03 04:45:12;;;;;;;10.88;8.20;;;;;;;25.29;38.20;97032.50;5114061;28;20027;-26
2022/06/03 04:47:55;;;;;;;12.20;7.82;;;;;;;25.22;38.15;97030.22;5114056;28;20050;-26
2022/06/03 04:51:09;;;;;;;9.52;7.18;;;;;;;25.21;38.52;97037.06;5114481;28;20483;-27
2022/06/03 04:53:46;;;;;;;11.13;6.78;;;;;;;25.23;38.40;97037.31;5114299;28;20034;-26
2022/06/03 04:56:19;;;;;;;11.05;7.50;;;;;;;25.20;38.47;97043.91;5114101;28;20023;-26
2022/06/03 04:58:50;;;;;;;12.02;6.72;;;;;;;25.24;38.68;97060.25;5114132;28;20054;-26
2022/06/03 05:01:52;;;;;;;7.93;6.28;;;;;;;25.18;38.49;97056.75;5114116;28;20027;-26
2022/06/03 05:04:36;;;;;;;10.45;6.13;;;;;;;25.19;38.48;97047.94;5113898;28;20062;-26
2022/06/03 05:07:35;;;;;;;7.65;6.03;;;;;;;25.20;38.67;97048.69;5113860;28;20034;-26
2022/06/03 05:10:38;;;;;;;7.85;5.72;;;;;;;25.25;38.53;97048.66;5113680;28;20078;-26
2022/06/03 05:13:21;;;;;;;9.93;6.40;;;;;;;25.28;38.90;97053.19;5113717;28;20041;-26
2022/06/03 05:15:47;;;;;;;6.95;5.35;;;;;;;25.30;39.01;97058.25;5110228;28;20042;-26
2022/06/03 05:18:24;;;;;;;8.13;5.40;;;;;;;25.23;38.92;97058.75;5091268;28;20020;-26
2022/06/03 05:21:11;;;;;;;8.63;5.97;;;;;;;25.21;38.84;97064.84;5091542;28;20032;-26
2022/06/03 05:23:55;;;;;;;8.27;5.72;;;;;;;25.21;39.24;97066.84;5091533;28;20070;-26
2022/06/03 05:26:42;;;;;;;8.93;5.35;;;;;;;25.24;38.95;97063.03;5091520;28;20051;-26
2022/06/03 05:29:19;;;;;;;10.40;5.55;;;;;;;25.20;39.08;97066.09;5103553;28;20038;-26
2022/06/03 05:32:35;;;;;;;6.28;4.47;;;;;;;25.24;39.18;97072.13;5110544;28;20023;-26
2022/06/03 05:35:19;;;;;;;7.50;4.53;;;;;;;25.20;39.39;97068.88;5097767;28;20391;-26
2022/06/03 05:38:12;;;;;;;8.18;5.43;;;;;;;25.20;39.12;97066.09;5115936;28;20436;-26
2022/06/03 05:40:49;;;;;;;8.02;4.68;;;;;;;25.23;39.57;97064.31;5115288;27;20027;-26
2022/06/03 05:43:19;;;;;;;6.80;4.45;;;;;;;25.23;39.33;97069.84;5114060;28;20035;-26
2022/06/03 05:46:15;;;;;;;5.95;4.57;;;;;;;25.25;39.65;97072.88;5115977;28;20022;-26
2022/06/03 05:48:52;;;;;;;7.13;4.85;;;;;;;25.23;39.56;97069.84;5115593;28;20102;-26
2022/06/03 05:51:20;;;;;;;8.52;4.75;;;;;;;25.25;39.54;97079.19;5115707;28;20024;-27
2022/06/03 05:54:14;;;;;;;6.35;4.00;;;;;;;25.25;39.66;97078.44;5115294;28;20723;-26
2022/06/03 05:57:15;;;;;;;7.55;4.57;;;;;;;25.26;39.82;97080.69;5115494;28;20467;-26
2022/06/03 06:00:26;;;;;;;5.75;4.13;;;;;;;25.22;39.54;97076.69;5115269;28;20495;-26
2022/06/03 06:03:07;;;;;;;6.47;4.57;;;;;;;25.21;39.87;97070.38;5115136;28;20024;-26
2022/06/03 06:05:39;;;;;;;5.30;4.32;;;;;;;25.20;39.76;97066.09;5102986;28;20028;-26
2022/06/03 06:08:14;;;;;;;8.82;3.67;;;;;;;25.25;39.10;97065.31;5094828;28;20388;-25
2022/06/03 06:10:48;;;;;;;6.15;3.80;;;;;;;25.19;39.08;97074.94;5110706;28;20103;-26
2022/06/03 06:13:23;;;;;;;4.82;3.00;;;;;;;25.16;38.78;97065.59;5115059;28;20495;-26
2022/06/03 06:16:42;;;;;;;5.75;3.60;;;;;;;25.14;37.97;97072.91;5114665;28;20562;-26
2022/06/03 06:19:52;;;;;;;6.22;2.97;;;;;;;24.91;39.60;97075.72;5031611;28;20068;-25
2022/06/03 06:22:31;;;;;;;4.40;3.10;;;;;;;25.00;39.85;97069.16;4992472;28;20030;-26
2022/06/03 06:25:02;;;;;;;4.20;2.95;;;;;;;25.04;37.47;97070.41;4992382;28;20392;-26
2022/06/03 06:27:33;;;;;;;6.28;2.83;;;;;;;24.85;39.50;97069.41;4992276;28;20321;-26
2022/06/03 06:30:21;;;;;;;7.10;3.38;;;;;;;25.15;39.40;97071.66;4990892;28;20042;-26
2022/06/03 06:32:58;;;;;;;5.18;3.38;;;;;;;25.17;38.91;97072.66;4992028;28;20042;-26
2022/06/03 06:36:00;;;;;;;6.70;3.30;;;;;;;25.21;39.14;97064.84;4992503;28;20034;-26
2022/06/03 06:38:44;;;;;;;5.55;2.80;;;;;;;25.04;39.08;97069.66;4992391;28;20046;-26
2022/06/03 06:41:35;;;;;;;;;;;;;;;25.17;39.26;97072.66;4992104;28;20045;-26
2022/06/03 06:44:09;;;;;;;5.22;3.22;;;;;;;25.18;39.06;97067.88;4991267;28;19913;-26
2022/06/03 06:46:46;;;;;;;10.55;2.50;;;;;;;25.21;38.90;97056.50;4992280;28;20084;-26
2022/06/03 06:49:20;;;;;;;7.63;3.35;;;;;;;25.27;38.89;97062.78;4992123;28;20054;-26
2022/06/03 06:51:58;;;;;;;5.05;3.05;;;;;;;25.34;38.59;97059.50;4991764;28;20098;-26
2022/06/03 06:54:29;;;;;;;7.43;2.78;;;;;;;25.23;38.70;97058.75;5051339;28;20044;-26
2022/06/03 06:57:00;;;;;;;3.78;2.90;;;;;;;25.19;38.69;97056.25;5102204;28;20062;-26
2022/06/03 06:59:31;;;;;;;3.63;2.70;;;;;;;25.28;38.63;97067.06;5114177;28;20072;-26
2022/06/03 07:02:03;;;;;;;5.13;2.30;;;;;;;25.32;38.87;97056.47;5114140;28;20031;-26
2022/06/03 07:04:33;;;;;;;4.32;2.83;;;;;;;25.29;39.20;97065.06;5116579;27;20027;-26
2022/06/03 07:07:21;;;;;;;6.80;2.80;;;;;;;25.19;39.24;97061.81;5134509;27;20138;-26
2022/06/03 07:09:51;;;;;;;3.92;2.75;;;;;;;25.31;38.92;97068.09;5134409;27;20495;-26
2022/06/03 07:12:19;;;;;;;4.68;2.20;;;;;;;25.31;39.13;97057.72;5134589;27;20073;-26
2022/06/03 07:15:22;;;;;;;4.03;2.53;;;;;;;25.31;38.86;97063.28;5134451;27;20023;-26
2022/06/03 07:20:50;;;;;;;6.35;2.03;;;;;;;24.85;39.83;97065.91;5115225;28;20077;-27
2022/06/03 07:23:22;;;;;;;5.90;2.13;;;;;;;25.13;39.34;97052.72;5114922;28;20072;-26
2022/06/03 07:25:58;;;;;;;4.82;2.25;;;;;;;25.27;39.13;97057.22;5115306;28;20026;-27
2022/06/03 07:28:29;;;;;;;10.70;2.88;;;;;;;25.30;39.07;97069.34;5115847;28;20024;-27
2022/06/03 07:30:55;;;;;;;7.40;2.75;;;;;;;25.26;38.99;97074.41;5115636;28;20024;-27
2022/06/03 07:33:29;;;;;;;4.72;2.40;;;;;;;25.29;38.95;97079.69;5115465;28;20363;-27
2022/06/03 07:36:25;;;;;;;4.15;2.50;;;;;;;25.28;39.16;97066.31;5115333;28;20039;-27
2022/06/03 07:39:15;;;;;;;4.57;2.17;;;;;;;25.29;39.26;97073.38;5097119;28;20049;-26
2022/06/03 07:41:52;;;;;;;4.00;2.67;;;;;;;25.28;39.40;97069.84;5115420;28;20024;-27
2022/06/03 07:44:56;;;;;;;2.83;2.00;;;;;;;25.28;39.24;97078.19;5115196;28;20053;-26
2022/06/03 07:47:24;;;;;;;;;;;;;;;25.26;39.38;97075.16;5114411;28;20039;-27
2022/06/03 07:50:01;;;;;;;7.72;2.25;;;;;;;25.26;39.44;97071.63;5115146;28;20363;-26
2022/06/03 07:52:32;;;;;;;4.57;2.17;;;;;;;25.26;39.85;97068.84;5115184;28;20054;-27
2022/06/03 07:54:59;;;;;;;4.20;2.38;;;;;;;25.21;39.30;97067.63;5114941;28;20016;-26
2022/06/03 07:57:28;;;;;;;2.40;1.90;;;;;;;25.24;39.68;97065.81;5115071;28;20023;-26
2022/06/03 08:00:00;;;;;;;3.85;2.00;;;;;;;25.28;39.59;97072.63;5115068;28;20030;-27
2022/06/03 08:02:27;;;;;;;4.73;2.07;;;;;;;25.21;39.54;97075.94;5114887;28;20085;-27
2022/06/03 08:05:14;;;;;;;4.22;1.90;;;;;;;25.20;39.58;97074.44;5114901;28;20031;-28
2022/06/03 08:13:14;;;;;;;4.22;1.92;;;;;;;25.26;39.44;97080.69;5114338;28;20068;-26
2022/06/03 08:16:01;;;;;;;7.20;1.75;;;;;;;25.18;39.42;97088.06;5114198;28;20118;-29
2022/06/03 08:18:34;;;;;;;2.63;1.70;;;;;;;25.22;39.95;97099.63;5114758;28;20030;-27
2022/06/03 08:21:25;;;;;;;4.63;2.15;;;;;;;25.24;39.65;97105.44;5114593;28;20019;-27
2022/06/03 08:23:54;;;;;;;3.78;1.80;;;;;;;25.23;39.82;97095.59;5114867;28;20020;-27
2022/06/03 08:26:23;;;;;;;4.80;2.25;;;;;;;25.21;39.67;97089.06;5114566;28;20019;-27
2022/06/03 08:28:52;;;;;;;6.72;2.30;;;;;;;25.25;39.78;97078.44;5114343;28;20019;-28
2022/06/03 08:31:22;;;;;;;4.25;1.90;;;;;;;25.24;39.81;97077.69;5114345;28;20395;-27
2022/06/03 08:33:52;;;;;;;6.90;2.30;;;;;;;25.22;39.43;97091.31;5114225;28;20109;-27
2022/06/03 08:36:29;;;;;;;3.10;2.30;;;;;;;25.21;39.84;97095.38;5114597;28;20031;-26
2022/06/03 08:39:06;;;;;;;5.28;2.58;;;;;;;25.28;39.43;97100.38;5114390;28;20019;-27
2022/06/03 08:41:56;;;;;;;2.30;1.88;;;;;;;25.20;39.82;97091.06;5114462;28;20413;-27
2022/06/03 08:44:28;;;;;;;5.07;2.80;;;;;;;25.18;39.26;97090.81;5114311;28;20016;-26
2022/06/03 08:47:06;;;;;;;5.75;2.80;;;;;;;25.18;39.36;97076.19;5114323;28;20024;-26
2022/06/03 08:49:50;;;;;;;4.70;2.25;;;;;;;25.22;39.75;97079.47;5113485;28;20027;-27
2022/06/03 08:52:22;;;;;;;3.50;2.33;;;;;;;25.12;38.05;97081.75;5113585;28;20464;-26
2022/06/03 08:54:58;;;;;;;11.50;2.00;;;;;;;25.21;35.71;97075.94;5113289;28;20510;-26
2022/06/03 08:57:51;;;;;;;9.05;1.63;;;;;;;24.92;37.58;97085.53;5113138;28;20032;-28
2022/06/03 09:00:21;;;;;;;6.05;2.20;;;;;;;24.94;37.91;97085.06;5112584;28;20031;-27
2022/06/03 09:03:06;;;;;;;5.93;2.08;;;;;;;25.02;36.37;97074.97;5113780;28;20039;-23
2022/06/03 09:05:53;;;;;;;7.15;2.10;;;;;;;25.22;35.15;97071.16;5113320;28;20034;-24
2022/06/03 09:08:49;;;;;;;5.38;1.77;;;;;;;25.05;36.38;97076.72;5112853;28;20048;-27
2022/06/03 09:11:31;;;;;;;6.03;1.85;;;;;;;25.06;36.92;97078.25;5112314;28;20109;-27
2022/06/03 09:14:03;;;;;;;6.28;1.50;;;;;;;25.22;35.78;97079.47;5112768;28;20031;-28
2022/06/03 09:16:30;;;;;;;5.97;1.90;;;;;;;25.30;36.51;97086.75;5111104;28;20023;-27
2022/06/03 09:19:09;;;;;;;3.10;1.42;;;;;;;25.27;36.31;97081.47;5112082;28;20020;-27
2022/06/03 09:21:41;;;;;;;6.32;1.73;;;;;;;25.34;35.98;97072.63;5095373;28;20439;-27
2022/06/03 09:24:17;;;;;;;8.32;1.63;;;;;;;25.23;36.31;97076.16;5114091;28;20031;-26
2022/06/03 09:26:47;;;;;;;8.50;1.55;;;;;;;25.29;36.75;97081.72;5113858;28;20032;-27
2022/06/03 09:29:15;;;;;;;7.22;1.75;;;;;;;25.26;36.39;97077.16;5113670;28;20024;-27
2022/06/03 09:31:46;;;;;;;4.38;1.60;;;;;;;25.35;36.07;97082.44;5113599;28;20092;-27
2022/06/03 09:34:13;;;;;;;2.90;1.40;;;;;;;25.30;36.17;97081.22;5113546;28;20027;-26
2022/06/03 09:36:39;;;;;;;3.63;1.30;;;;;;;25.34;36.35;97070.59;5113618;28;20035;-28
2022/06/03 09:39:09;;;;;;;4.40;1.50;;;;;;;25.38;36.37;97070.31;5113640;28;20024;-26
2022/06/03 09:41:43;;;;;;;5.97;1.70;;;;;;;25.39;36.42;97067.03;5113529;28;20028;-27
2022/06/03 09:44:13;;;;;;;3.80;1.60;;;;;;;25.34;36.58;97067.81;5114015;28;20529;-26
2022/06/03 09:46:40;;;;;;;2.63;1.30;;;;;;;25.37;36.68;97063.25;5113720;28;20031;-26
2022/06/03 09:49:08;;;;;;;2.78;1.50;;;;;;;25.35;36.70;97054.66;5113455;28;20023;-27
2022/06/03 09:52:00;;;;;;;2.95;1.67;;;;;;;25.36;36.48;97051.38;5113760;28;20024;-27
2022/06/03 09:54:39;;;;;;;4.15;1.50;;;;;;;25.35;37.01;97060.22;5113601;28;20047;-26
2022/06/03 09:57:16;;;;;;;10.13;1.80;;;;;;;25.37;36.86;97064.00;5113466;28;20027;-26
2022/06/03 09:59:50;;;;;;;4.88;1.48;;;;;;;25.40;36.63;97076.88;5113487;28;20055;-28
2022/06/03 10:02:15;;;;;;;3.42;1.83;;;;;;;25.30;37.48;97086.75;5113323;28;20034;-27
2022/06/03 10:04:41;;;;;;;3.97;1.55;;;;;;;25.39;37.39;97072.59;5113312;28;20023;-26
2022/06/03 10:07:06;;;;;;;3.15;1.30;;;;;;;25.41;37.23;97074.84;5113167;28;20023;-26
2022/06/03 10:18:00;;;;;;;5.72;1.38;;;;;;;25.45;36.72;97091.25;5113250;28;20049;-26
2022/06/03 10:20:25;;;;;;;3.10;1.50;;;;;;;25.51;36.77;97089.97;5116608;28;20015;-29
2022/06/03 10:22:51;;;;;;;1.83;1.35;;;;;;;25.47;36.56;97094.28;5116846;28;20020;-27
2022/06/03 10:25:17;;;;;;;5.00;1.25;;;;;;;25.43;36.55;97097.31;5116937;28;20024;-27
2022/06/03 10:27:45;;;;;;;5.30;1.60;;;;;;;25.51;36.50;97101.06;5116632;28;20030;-27
2022/06/03 10:30:12;;;;;;;4.32;1.25;;;;;;;25.46;36.76;97103.88;5116758;28;20387;-26
2022/06/03 10:32:37;;;;;;;6.35;1.60;;;;;;;25.54;36.59;97105.63;5116553;28;20432;-27
2022/06/03 10:35:31;;;;;;;4.63;1.48;;;;;;;25.55;36.69;97106.38;5116630;28;20019;-28
2022/06/03 10:38:00;;;;;;;5.38;1.40;;;;;;;25.59;36.19;97115.19;5112945;28;20084;-26
2022/06/03 10:40:27;;;;;;;3.92;1.35;;;;;;;25.54;36.27;97121.53;5116760;28;20024;-26
2022/06/03 10:42:55;;;;;;;2.72;1.05;;;;;;;25.63;35.99;97108.13;5116384;28;20383;-28
2022/06/03 10:45:34;;;;;;;4.38;1.30;;;;;;;25.62;36.12;97112.16;5116503;28;20019;-26
2022/06/03 10:48:01;;;;;;;5.70;1.10;;;;;;;25.63;36.18;97102.56;5116323;28;20024;-27
2022/06/03 10:50:30;;;;;;;2.25;0.98;;;;;;;25.58;36.08;97100.56;5116472;28;20055;-27
2022/06/03 11:02:01;;;;;;;3.72;1.10;;;;;;;25.63;36.11;97110.16;5116436;28;20034;-27
2022/06/03 11:04:33;;;;;;;3.90;1.20;;;;;;;25.67;36.11;97118.97;5115893;28;20027;-27
2022/06/03 11:07:01;;;;;;;3.20;1.40;;;;;;;25.70;36.14;97115.94;5115917;28;20043;-27
2022/06/03 11:09:27;;;;;;;4.07;1.30;;;;;;;25.70;36.31;97107.63;5115856;28;20039;-29
2022/06/03 11:12:04;;;;;;;2.65;1.02;;;;;;;25.69;35.99;97113.69;5115858;28;20452;-27
2022/06/03 11:14:40;;;;;;;4.88;1.40;;;;;;;25.71;36.30;97102.81;5115719;28;20035;-28
2022/06/03 11:17:13;;;;;;;3.15;1.10;;;;;;;25.78;35.74;97113.38;5115777;28;20529;-27
2022/06/03 11:19:47;;;;;;;4.30;1.13;;;;;;;25.70;36.15;97109.63;5115901;28;20067;-27
2022/06/03 11:22:39;;;;;;;4.60;1.67;;;;;;;25.78;36.50;97102.25;5115847;28;20471;-28
2022/06/03 11:25:04;;;;;;;2.03;1.30;;;;;;;25.67;36.46;97096.75;5115938;28;20490;-27
2022/06/03 11:27:55;;;;;;;5.55;1.48;;;;;;;25.82;36.75;97088.88;5115053;28;20019;-27
2022/06/03 11:30:30;;;;;;;2.00;1.40;;;;;;;25.76;37.03;97104.78;5115310;28;20028;-27
2022/06/03 11:33:02;;;;;;;2.03;1.23;;;;;;;25.74;37.39;97101.75;5114925;28;20792;-27
2022/06/03 11:35:39;;;;;;;3.23;1.40;;;;;;;25.83;36.81;97087.59;5097370;28;20036;-26
2022/06/03 11:38:07;;;;;;;4.97;1.60;;;;;;;25.82;37.21;97091.66;5115389;28;20494;-26
2022/06/03 11:40:37;;;;;;;2.92;1.60;;;;;;;25.83;36.94;97086.84;5115670;28;20073;-27
2022/06/03 11:43:13;;;;;;;5.22;1.80;;;;;;;25.78;36.83;97085.59;5115093;28;20024;-27
2022/06/03 11:45:52;;;;;;;3.03;1.60;;;;;;;25.83;36.48;97081.28;5115209;28;20027;-27
2022/06/03 11:48:30;;;;;;;2.30;1.15;;;;;;;25.82;36.01;97085.34;5114993;28;20020;-28
2022/06/03 11:50:58;;;;;;;5.32;1.40;;;;;;;25.58;35.93;97088.69;5114997;28;20047;-27
2022/06/03 11:53:26;;;;;;;2.28;1.20;;;;;;;25.74;35.62;97085.09;5115160;28;20442;-26
2022/06/03 11:55:54;;;;;;;2.88;1.33;;;;;;;25.67;35.32;97089.19;5114995;28;20049;-27
2022/06/03 11:58:43;;;;;;;1.95;1.20;;;;;;;25.68;34.38;97076.06;5115049;28;20019;-27
2022/06/03 12:01:18;;;;;;;3.15;1.60;;;;;;;25.82;34.32;97085.34;5115030;28;20103;-29
2022/06/03 12:04:04;;;;;;;2.03;1.10;;;;;;;25.74;34.91;97082.31;5115161;28;20035;-28
2022/06/03 12:06:33;;;;;;;1.85;0.98;;;;;;;25.65;34.86;97080.59;5114773;28;20080;-27
2022/06/03 12:09:36;;;;;;;3.53;1.30;;;;;;;25.82;34.44;97080.53;5114594;28;20503;-27
2022/06/03 12:15:51;;;;;;;5.10;2.25;;;;;;;25.83;34.40;97098.72;5114860;28;20096;-27
2022/06/03 12:18:32;;;;;;;1.80;1.33;;;;;;;25.91;34.48;97107.25;5012210;28;20498;-27
2022/06/03 12:21:05;;;;;;;2.92;1.27;;;;;;;25.91;34.51;97094.13;5012449;28;20069;-27
2022/06/03 12:23:48;;;;;;;2.83;1.23;;;;;;;25.91;34.88;97105.22;5012326;28;20103;-26
2022/06/03 12:26:16;;;;;;;4.80;1.63;;;;;;;25.95;34.75;97099.41;5012294;28;20036;-27
2022/06/03 12:28:46;;;;;;;3.70;1.73;;;;;;;25.91;34.95;97099.69;5011703;28;20033;-27
2022/06/03 12:31:20;;;;;;;3.97;1.33;;;;;;;25.93;35.16;97105.47;5012099;28;20036;-27
2022/06/03 12:33:57;;;;;;;6.93;1.70;;;;;;;25.85;35.87;97118.38;5011991;28;20033;-27
2022/06/03 12:36:39;;;;;;;3.13;1.58;;;;;;;25.84;36.03;97124.47;5012093;28;20038;-28
2022/06/03 12:39:05;;;;;;;4.63;1.50;;;;;;;25.77;36.79;97134.84;5012090;28;20025;-27
2022/06/03 12:41:45;;;;;;;2.78;1.80;;;;;;;25.68;36.93;97131.59;5011120;28;20036;-27
2022/06/03 12:44:41;;;;;;;7.22;1.77;;;;;;;25.81;37.22;97126.25;5011850;28;20030;-27
2022/06/03 12:47:18;;;;;;;2.42;1.60;;;;;;;25.74;37.02;97137.88;5011956;28;20030;-27
2022/06/03 12:49:44;;;;;;;3.33;1.55;;;;;;;25.74;37.06;97133.09;5097882;28;20040;-27
2022/06/03 12:52:34;;;;;;;4.60;1.70;;;;;;;25.77;37.15;97139.66;5114132;28;20024;-27
2022/06/03 12:55:02;;;;;;;5.28;2.05;;;;;;;25.85;37.04;97139.84;5114051;28;20031;-27
2022/06/03 12:57:36;;;;;;;4.00;1.70;;;;;;;25.74;36.90;97152.53;5114033;28;20036;-28
2022/06/03 13:00:02;;;;;;;4.47;1.90;;;;;;;25.86;36.81;97161.59;5113900;28;20110;-27
2022/06/03 13:02:31;;;;;;;3.30;1.70;;;;;;;25.91;37.10;97163.59;5114059;28;20110;-27
2022/06/03 13:04:58;;;;;;;3.38;1.98;;;;;;;25.81;37.16;97173.50;5113927;28;20034;-26
2022/06/03 13:07:26;;;;;;;3.58;1.83;;;;;;;25.69;37.14;97160.91;5113681;28;20027;-27
2022/06/03 13:10:04;;;;;;;3.38;1.70;;;;;;;25.79;37.24;97158.59;5113842;28;20564;-27